Time;durP1;ratioP1;P1;durP2;ratioP2;P2;SDS_P1;SDS_P2;PMS_P1;PMS_P2;Temp;Humidity;BMP_temperature;BMP_pressure;BME280_temperature;BME280_humidity;BME280_pressure;Samples;Min_cycle;Max_cycle;Signal;HPM_P1;HPM_P2
2021/06/01 00:00:23;;;;;;;2.08;1.20;;;;;;;16.35;41.34;101900.31;5138249;27;20075;-40
2021/06/01 00:02:49;;;;;;;1.97;1.23;;;;;;;16.38;41.42;101908.00;5137315;27;20070;-40
2021/06/01 00:05:15;;;;;;;4.97;1.60;;;;;;;16.28;42.21;101904.25;5137296;27;20303;-40
2021/06/01 00:07:40;;;;;;;;;;;;;;;16.40;42.05;101910.53;5138392;27;20110;-40
2021/06/01 00:10:07;;;;;;;2.90;1.07;;;;;;;16.29;42.01;101905.91;5137689;27;19971;-40
2021/06/01 00:12:32;;;;;;;1.67;1.10;;;;;;;16.33;42.35;101907.09;5138241;27;20034;-40
2021/06/01 00:14:57;;;;;;;;;;;;;;;16.33;41.90;101902.44;5138287;27;20023;-40
2021/06/01 00:17:22;;;;;;;1.73;1.07;;;;;;;16.27;42.31;101897.16;5136896;27;19915;-40
2021/06/01 00:19:48;;;;;;;;;;;;;;;16.23;42.25;101900.34;5137684;27;20050;-40
2021/06/01 00:22:13;;;;;;;2.42;1.25;;;;;;;16.10;43.11;101892.44;5137170;27;19951;-40
2021/06/01 00:24:38;;;;;;;2.93;0.97;;;;;;;16.09;42.13;101900.88;5138000;27;20031;-40
2021/06/01 00:27:05;;;;;;;3.33;1.20;;;;;;;16.03;41.91;101890.94;5137117;27;20067;-40
2021/06/01 00:29:31;;;;;;;;;;;;;;;16.13;42.58;101891.16;5135719;27;20450;-40
2021/06/01 00:31:56;;;;;;;2.92;1.20;;;;;;;16.07;42.53;101887.50;5136779;27;19963;-40
2021/06/01 00:34:21;;;;;;;2.47;1.10;;;;;;;15.97;43.05;101881.84;5137522;27;20080;-40
2021/06/01 00:36:47;;;;;;;2.55;1.23;;;;;;;16.04;42.58;101887.13;5136079;27;20616;-40
2021/06/01 00:39:12;;;;;;;2.08;1.15;;;;;;;15.94;42.60;101894.03;5136395;27;20031;-40
2021/06/01 00:41:38;;;;;;;2.05;1.20;;;;;;;15.92;43.20;101889.91;5137166;27;20030;-40
2021/06/01 00:44:03;;;;;;;2.58;1.35;;;;;;;15.88;43.07;101900.47;5137321;27;20027;-40
2021/06/01 00:46:29;;;;;;;2.42;1.50;;;;;;;15.88;42.80;101886.81;5137341;27;20031;-40
2021/06/01 00:48:55;;;;;;;3.53;1.50;;;;;;;15.90;43.39;101894.75;5136732;27;20076;-40
2021/06/01 00:51:20;;;;;;;1.58;0.90;;;;;;;15.82;43.35;101889.69;5137190;27;20443;-40
2021/06/01 00:53:45;;;;;;;2.50;1.23;;;;;;;15.83;43.46;101889.44;5136819;27;20031;-40
2021/06/01 00:56:11;;;;;;;2.80;1.10;;;;;;;15.82;43.90;101887.81;5136326;27;20034;-40
2021/06/01 00:58:37;;;;;;;3.08;1.27;;;;;;;15.74;43.55;101888.16;5136546;27;20054;-40
2021/06/01 01:03:28;;;;;;;1.73;1.15;;;;;;;15.66;45.40;101886.66;5136440;27;20035;-40
2021/06/01 01:06:02;;;;;;;2.28;1.15;;;;;;;15.67;44.70;101884.75;5136997;27;20080;-40
2021/06/01 01:08:52;;;;;;;2.00;1.25;;;;;;;15.58;44.33;101889.69;5136322;27;20129;-40
2021/06/01 01:11:54;;;;;;;2.13;1.30;;;;;;;15.56;44.27;101889.09;5137084;27;20039;-40
2021/06/01 01:14:31;;;;;;;2.30;1.33;;;;;;;15.53;44.89;101889.59;5136125;27;20084;-40
2021/06/01 01:17:03;;;;;;;3.33;1.30;;;;;;;15.46;44.97;101889.69;5136611;27;20105;-40
2021/06/01 01:19:49;;;;;;;3.75;1.42;;;;;;;15.53;44.81;101889.59;5136883;27;20431;-40
2021/06/01 01:22:16;;;;;;;3.72;1.52;;;;;;;15.45;45.37;101889.94;5136359;27;20023;-40
2021/06/01 01:24:45;;;;;;;1.55;1.05;;;;;;;15.50;45.28;101890.06;5135954;27;20088;-40
2021/06/01 01:27:16;;;;;;;3.80;1.70;;;;;;;15.38;45.38;101887.34;5136136;27;20041;-40
2021/06/01 01:29:47;;;;;;;4.13;1.23;;;;;;;15.32;46.11;101890.19;5135892;27;20038;-40
2021/06/01 01:32:43;;;;;;;2.80;1.30;;;;;;;15.30;45.98;101889.59;5136719;27;20584;-40
2021/06/01 01:35:10;;;;;;;3.88;1.60;;;;;;;15.15;45.98;101890.91;5136199;27;20439;-40
2021/06/01 01:37:37;;;;;;;2.78;1.65;;;;;;;15.04;46.21;101891.72;5135355;27;20019;-40
2021/06/01 01:40:04;;;;;;;4.78;1.83;;;;;;;15.22;46.58;101884.50;5135980;27;20023;-40
2021/06/01 01:42:42;;;;;;;3.08;1.45;;;;;;;15.10;46.60;101881.78;5135544;27;20026;-40
2021/06/01 01:45:19;;;;;;;4.15;1.90;;;;;;;15.00;47.08;101887.81;5136381;27;20038;-40
2021/06/01 01:50:39;;;;;;;3.25;1.70;;;;;;;15.02;47.38;101882.94;5135116;27;20040;-40
2021/06/01 01:53:05;;;;;;;5.35;1.77;;;;;;;14.90;48.46;101884.84;5135875;27;20027;-40
2021/06/01 01:55:31;;;;;;;;;;;;;;;15.03;46.79;101881.91;5136153;27;20027;-39
2021/06/01 01:57:57;;;;;;;5.50;1.80;;;;;;;14.90;48.04;101879.38;5135537;27;19911;-40
2021/06/01 02:00:23;;;;;;;3.78;1.60;;;;;;;14.87;48.03;101883.41;5135927;27;20042;-40
2021/06/01 02:02:48;;;;;;;3.75;2.35;;;;;;;14.84;48.30;101877.59;5135701;27;20031;-40
2021/06/01 02:05:15;;;;;;;3.92;1.77;;;;;;;14.70;48.12;101882.44;5135710;27;20461;-40
2021/06/01 02:07:41;;;;;;;4.88;1.85;;;;;;;14.66;48.80;101876.63;5134875;27;20055;-40
2021/06/01 02:10:09;;;;;;;3.67;2.17;;;;;;;14.55;48.89;101876.59;5134878;27;20108;-40
2021/06/01 02:12:35;;;;;;;3.70;2.00;;;;;;;14.54;48.62;101880.34;5134758;27;20030;-39
2021/06/01 02:15:01;;;;;;;4.72;1.80;;;;;;;14.49;48.96;101875.59;5134648;27;20023;-40
2021/06/01 02:17:26;;;;;;;4.25;2.17;;;;;;;14.41;49.59;101865.03;5133837;27;20511;-40
2021/06/01 02:19:52;;;;;;;2.90;1.70;;;;;;;14.44;49.46;101870.00;5134346;27;20360;-39
2021/06/01 02:22:25;;;;;;;2.15;1.77;;;;;;;14.50;49.66;101871.84;5133982;27;20378;-40
2021/06/01 02:25:10;;;;;;;2.88;1.70;;;;;;;14.53;49.43;101863.19;5134049;27;20035;-39
2021/06/01 02:27:46;;;;;;;3.67;1.50;;;;;;;14.49;49.75;101864.72;5133942;27;20038;-40
2021/06/01 02:30:16;;;;;;;2.90;1.80;;;;;;;14.46;49.77;101870.59;5134589;27;20152;-39
2021/06/01 02:32:45;;;;;;;3.67;1.77;;;;;;;14.29;50.68;101869.59;5133902;27;20109;-40
2021/06/01 02:35:18;;;;;;;3.03;1.90;;;;;;;14.35;50.30;101874.97;5133569;28;20062;-39
2021/06/01 02:37:46;;;;;;;5.55;1.90;;;;;;;14.35;51.13;101876.84;5133565;27;20027;-40
2021/06/01 02:40:15;;;;;;;3.88;2.08;;;;;;;14.27;50.73;101878.00;5134605;27;20367;-40
2021/06/01 02:42:41;;;;;;;3.90;1.80;;;;;;;14.24;51.51;101874.91;5134004;27;20026;-40
2021/06/01 02:45:09;;;;;;;3.47;2.03;;;;;;;14.18;51.70;101874.75;5133456;27;20471;-40
2021/06/01 02:47:35;;;;;;;2.70;1.98;;;;;;;14.10;51.62;101868.78;5133323;27;20067;-40
2021/06/01 02:50:05;;;;;;;3.72;2.05;;;;;;;14.17;51.53;101872.28;5133611;27;20479;-40
2021/06/01 02:52:31;;;;;;;5.70;2.55;;;;;;;14.13;52.06;101877.34;5133763;27;20046;-40
2021/06/01 02:55:00;;;;;;;4.88;2.03;;;;;;;14.11;52.23;101874.03;5133459;27;20035;-40
2021/06/01 02:57:25;;;;;;;2.72;2.00;;;;;;;13.98;52.58;101868.75;5133238;27;20027;-40
2021/06/01 02:59:51;;;;;;;4.03;2.38;;;;;;;14.05;52.36;101877.63;5134150;27;20019;-40
2021/06/01 03:02:16;;;;;;;3.78;2.28;;;;;;;14.07;52.19;101870.09;5131488;27;20035;-39
2021/06/01 03:04:52;;;;;;;4.77;2.40;;;;;;;14.07;51.86;101872.81;5133491;27;20113;-40
2021/06/01 03:07:18;;;;;;;3.45;2.20;;;;;;;13.88;52.23;101871.19;5133321;27;20375;-40
2021/06/01 03:09:44;;;;;;;4.32;2.22;;;;;;;13.89;52.36;101875.56;5133146;27;20028;-40
2021/06/01 03:12:21;;;;;;;3.63;1.85;;;;;;;13.91;52.63;101876.19;5096311;27;1082602;-40
2021/06/01 03:14:47;;;;;;;5.40;2.20;;;;;;;13.91;53.02;101879.72;5134024;28;20103;-40
2021/06/01 03:17:12;;;;;;;5.35;2.55;;;;;;;13.86;52.66;101881.47;5134227;27;20451;-40
2021/06/01 03:19:37;;;;;;;4.93;1.90;;;;;;;13.82;52.82;101878.38;5134195;27;20034;-39
2021/06/01 03:22:03;;;;;;;4.57;2.47;;;;;;;13.81;53.15;101884.00;5134197;27;20080;-39
2021/06/01 03:24:28;;;;;;;6.25;2.40;;;;;;;13.76;53.10;101879.28;5134701;27;20027;-39
2021/06/01 03:26:54;;;;;;;5.37;2.40;;;;;;;13.67;53.00;101879.81;5134091;27;20042;-40
2021/06/01 03:29:19;;;;;;;2.93;2.10;;;;;;;13.56;54.52;101884.09;5134950;27;20019;-40
2021/06/01 03:31:44;;;;;;;3.70;2.40;;;;;;;13.61;53.75;101885.06;5134007;27;20030;-40
2021/06/01 03:34:10;;;;;;;3.53;2.33;;;;;;;13.54;54.37;101883.50;5134011;27;20272;-39
2021/06/01 03:36:35;;;;;;;3.80;2.30;;;;;;;13.58;54.83;101884.72;5134833;27;20038;-39
2021/06/01 03:39:03;;;;;;;5.70;2.13;;;;;;;13.54;54.29;101887.03;5132491;28;20330;-39
2021/06/01 03:41:29;;;;;;;4.57;2.30;;;;;;;13.58;54.68;101884.72;5133634;27;20030;-39
2021/06/01 03:43:54;;;;;;;5.60;2.40;;;;;;;13.59;54.55;101887.19;5133966;27;20027;-39
2021/06/01 03:46:19;;;;;;;3.93;2.43;;;;;;;13.47;54.10;101889.00;5134004;27;20390;-39
2021/06/01 03:48:45;;;;;;;3.83;2.27;;;;;;;13.53;55.05;101888.09;5133901;27;20124;-39
2021/06/01 03:51:10;;;;;;;4.83;2.30;;;;;;;13.55;54.78;101893.31;5133701;28;20050;-39
2021/06/01 03:53:35;;;;;;;2.85;2.25;;;;;;;13.44;55.81;101889.44;5133753;27;20102;-39
2021/06/01 03:56:01;;;;;;;4.13;2.57;;;;;;;13.42;55.80;101886.13;5134396;27;20378;-39
2021/06/01 03:58:26;;;;;;;3.87;2.37;;;;;;;13.45;55.46;101888.38;5132157;28;20477;-39
2021/06/01 04:00:52;;;;;;;7.70;2.92;;;;;;;13.40;55.59;101893.66;5133834;27;20119;-39
2021/06/01 04:03:17;;;;;;;4.22;2.63;;;;;;;13.41;55.61;101887.16;5133450;27;20102;-40
2021/06/01 04:05:42;;;;;;;4.43;2.70;;;;;;;13.49;55.07;101886.88;5134272;27;20043;-40
2021/06/01 04:08:08;;;;;;;7.40;2.83;;;;;;;13.51;55.97;101890.19;5133761;27;20035;-40
2021/06/01 04:10:33;;;;;;;4.30;2.90;;;;;;;13.40;56.09;101890.94;5133645;27;20277;-40
2021/06/01 04:12:58;;;;;;;3.50;2.58;;;;;;;13.41;55.87;101889.88;5133609;27;20035;-39
2021/06/01 04:15:25;;;;;;;3.77;2.60;;;;;;;13.47;55.86;101904.44;5136414;27;20031;-40
2021/06/01 04:17:50;;;;;;;;;;;;;;;13.61;54.07;101892.38;5137735;27;20019;-40
2021/06/01 04:20:15;;;;;;;4.05;2.75;;;;;;;13.51;55.21;101890.19;5137359;27;19967;-40
2021/06/01 04:22:41;;;;;;;4.80;2.70;;;;;;;13.45;56.08;101895.72;5137784;27;20028;-40
2021/06/01 04:25:07;;;;;;;4.57;2.73;;;;;;;13.44;56.05;101900.31;5137412;27;20732;-39
2021/06/01 04:27:32;;;;;;;3.88;2.80;;;;;;;13.44;55.59;101878.56;5137012;27;20260;-40
2021/06/01 04:29:58;;;;;;;3.88;2.65;;;;;;;13.51;56.51;101890.19;5137612;27;20097;-39
2021/06/01 04:32:23;;;;;;;5.93;3.00;;;;;;;13.58;55.98;101893.69;5137436;27;20034;-39
2021/06/01 04:34:49;;;;;;;9.50;3.27;;;;;;;13.58;56.80;101884.72;5137421;27;20059;-39
2021/06/01 04:37:14;;;;;;;6.10;3.23;;;;;;;13.58;56.32;101890.16;5137184;27;20027;-40
2021/06/01 04:39:39;;;;;;;6.43;3.40;;;;;;;13.62;56.12;101883.19;5136922;27;20245;-39
2021/06/01 04:42:05;;;;;;;3.97;3.03;;;;;;;13.77;56.49;101882.81;5136594;27;20035;-39
2021/06/01 04:44:30;;;;;;;4.70;3.05;;;;;;;13.75;56.17;101890.34;5137378;27;20744;-40
2021/06/01 04:46:55;;;;;;;5.67;3.43;;;;;;;13.82;56.01;101869.38;5136507;27;20062;-40
2021/06/01 04:49:21;;;;;;;6.83;3.00;;;;;;;13.94;55.71;101870.25;5137072;27;20651;-39
2021/06/01 04:51:46;;;;;;;7.97;3.27;;;;;;;14.04;56.22;101870.53;5136347;27;20451;-40
2021/06/01 04:54:12;;;;;;;5.30;3.37;;;;;;;14.18;56.15;101871.22;5136869;27;20604;-39
2021/06/01 04:56:37;;;;;;;6.33;3.13;;;;;;;14.23;55.65;101878.69;5137097;27;20590;-39
2021/06/01 04:59:03;;;;;;;6.07;3.00;;;;;;;14.33;55.91;101876.22;5136248;27;20374;-40
2021/06/01 05:01:28;;;;;;;4.75;2.90;;;;;;;14.42;54.68;101870.22;5137332;27;20024;-39
2021/06/01 05:03:53;;;;;;;5.57;3.27;;;;;;;14.43;54.44;101871.06;5136476;27;20117;-40
2021/06/01 05:06:19;;;;;;;7.65;4.05;;;;;;;14.49;54.75;101863.88;5136726;27;20062;-39
2021/06/01 05:08:44;;;;;;;6.63;3.17;;;;;;;14.62;55.71;101856.34;5136289;27;20387;-40
2021/06/01 05:11:10;;;;;;;8.05;3.28;;;;;;;14.72;55.08;101868.56;5136239;27;20046;-40
2021/06/01 05:13:36;;;;;;;5.63;3.20;;;;;;;14.88;55.02;101876.91;5136203;27;20031;-39
2021/06/01 05:16:01;;;;;;;7.55;3.85;;;;;;;15.00;54.25;101874.19;5136668;27;20451;-40
2021/06/01 05:18:26;;;;;;;7.00;3.50;;;;;;;15.05;54.70;101870.75;5136660;27;20071;-39
2021/06/01 05:20:52;;;;;;;7.00;3.08;;;;;;;15.23;53.27;101875.28;5136132;27;20301;-40
2021/06/01 05:23:18;;;;;;;5.05;3.40;;;;;;;15.37;53.36;101872.06;5135761;27;20479;-40
2021/06/01 05:25:44;;;;;;;5.93;3.00;;;;;;;15.49;52.62;101873.94;5135826;27;20050;-39
2021/06/01 05:28:09;;;;;;;;;;;;;;;15.62;51.82;101869.06;5135269;27;20062;-39
2021/06/01 05:30:59;;;;;;;7.28;3.30;;;;;;;15.42;52.52;101877.63;5136097;27;19907;-39
2021/06/01 05:33:27;;;;;;;6.28;3.30;;;;;;;15.37;52.89;101869.34;5136524;27;20031;-40
2021/06/01 05:35:53;;;;;;;9.88;3.90;;;;;;;15.37;53.54;101871.22;5136067;27;20416;-39
2021/06/01 05:38:24;;;;;;;7.78;3.25;;;;;;;15.54;52.30;101871.34;5135338;27;20027;-39
2021/06/01 05:40:50;;;;;;;6.70;3.70;;;;;;;15.55;51.90;101873.81;5135940;27;20028;-40
2021/06/01 05:43:16;;;;;;;4.85;3.65;;;;;;;15.74;51.10;101866.34;5135536;27;20432;-39
2021/06/01 05:45:43;;;;;;;5.43;3.38;;;;;;;15.75;50.47;101869.91;5135689;27;20027;-40
2021/06/01 05:48:10;;;;;;;6.60;3.58;;;;;;;15.80;51.33;101870.00;5135523;27;20111;-40
2021/06/01 05:50:36;;;;;;;7.03;3.60;;;;;;;15.70;50.81;101865.16;5135477;27;20050;-40
2021/06/01 05:53:02;;;;;;;5.90;4.00;;;;;;;15.79;53.26;101863.72;5135415;27;20107;-40
2021/06/01 05:55:28;;;;;;;6.95;3.50;;;;;;;15.93;52.46;101864.28;5135374;27;20462;-39
2021/06/01 05:57:53;;;;;;;4.85;3.65;;;;;;;16.00;51.34;101864.97;5135361;27;20110;-39
2021/06/01 06:00:20;;;;;;;7.68;4.07;;;;;;;16.10;52.44;101853.41;5135652;27;20356;-40
2021/06/01 06:02:45;;;;;;;6.55;3.40;;;;;;;16.20;50.37;101857.19;5135221;27;20027;-40
2021/06/01 06:05:11;;;;;;;6.35;3.60;;;;;;;16.27;50.87;101864.41;5135478;27;20031;-40
2021/06/01 06:07:36;;;;;;;8.40;3.72;;;;;;;16.41;51.65;101866.59;5135114;27;20165;-40
2021/06/01 06:10:04;;;;;;;9.48;3.55;;;;;;;16.55;50.83;101867.09;5135237;27;20023;-40
2021/06/01 06:12:29;;;;;;;8.52;3.53;;;;;;;16.69;50.52;101863.00;5134787;27;20520;-40
2021/06/01 06:14:55;;;;;;;;;;;;;;;16.81;50.64;101859.38;5135387;27;20046;-40
2021/06/01 06:17:47;;;;;;;4.10;3.30;;;;;;;16.86;50.78;101868.47;5134928;27;19994;-40
2021/06/01 06:20:13;;;;;;;5.82;4.13;;;;;;;16.92;48.69;101858.47;5095951;28;20609;-39
2021/06/01 06:22:38;;;;;;;;;;;;;;;17.11;49.82;101861.75;5112558;28;20043;-39
2021/06/01 06:25:08;;;;;;;7.85;3.83;;;;;;;17.10;49.77;101860.13;5112662;28;19916;-40
2021/06/01 06:27:35;;;;;;;6.53;3.33;;;;;;;17.09;50.35;101863.94;5111818;28;20538;-39
2021/06/01 06:30:03;;;;;;;6.75;3.70;;;;;;;17.07;49.40;101868.81;5111856;28;20039;-40
2021/06/01 06:32:28;;;;;;;4.63;3.65;;;;;;;17.14;48.83;101856.63;5111726;28;20071;-40
2021/06/01 06:34:55;;;;;;;;;;;;;;;17.24;49.66;101862.25;5112794;28;20059;-40
2021/06/01 06:37:21;;;;;;;6.85;3.70;;;;;;;17.20;48.99;101861.09;5111582;28;19919;-40
2021/06/01 06:39:47;;;;;;;7.07;4.38;;;;;;;17.13;48.58;101857.72;5111984;28;20031;-40
2021/06/01 06:42:12;;;;;;;;;;;;;;;17.27;49.98;101855.44;5112170;28;20069;-39
2021/06/01 06:44:40;;;;;;;5.93;3.60;;;;;;;17.32;49.13;101855.50;5112449;28;19911;-39
2021/06/01 06:49:38;;;;;;;5.53;3.88;;;;;;;17.48;49.44;101860.13;5111805;28;20035;-40
2021/06/01 06:52:08;;;;;;;10.13;4.00;;;;;;;17.47;49.03;101863.09;5112373;28;20043;-40
2021/06/01 06:54:33;;;;;;;11.60;4.40;;;;;;;17.56;49.26;101861.59;5111999;28;20118;-40
2021/06/01 06:56:59;;;;;;;;;;;;;;;17.72;49.00;101866.19;5121827;27;20458;-40
2021/06/01 06:59:24;;;;;;;4.70;3.53;;;;;;;17.80;49.20;101858.66;5134091;27;20331;-40
2021/06/01 07:01:49;;;;;;;6.23;3.50;;;;;;;17.89;47.27;101857.94;5134548;27;20679;-40
2021/06/01 07:04:14;;;;;;;6.03;4.05;;;;;;;17.97;48.86;101851.22;5134674;27;20261;-40
2021/06/01 07:06:40;;;;;;;;;;;;;;;18.01;48.09;101858.66;5134860;27;20390;-39
2021/06/01 07:09:07;;;;;;;5.40;3.60;;;;;;;17.97;48.17;101856.69;5134175;28;20367;-40
2021/06/01 07:11:33;;;;;;;7.63;3.83;;;;;;;18.09;48.17;101860.09;5133820;27;20127;-39
2021/06/01 07:14:21;;;;;;;6.47;3.90;;;;;;;18.14;48.24;101851.09;5134220;27;20160;-39
2021/06/01 07:16:46;;;;;;;5.38;3.60;;;;;;;18.26;49.22;101858.09;5111352;28;20046;-39
2021/06/01 07:19:13;;;;;;;6.10;4.30;;;;;;;18.36;46.79;101853.81;5111462;28;20469;-39
2021/06/01 07:21:39;;;;;;;6.75;3.92;;;;;;;18.39;46.65;101853.28;5111296;28;20264;-39
2021/06/01 07:24:05;;;;;;;;;;;;;;;18.52;46.86;101853.69;5111599;28;20040;-39
2021/06/01 07:26:30;;;;;;;5.35;3.72;;;;;;;18.50;47.68;101849.56;5111253;28;19907;-39
2021/06/01 07:28:56;;;;;;;;;;;;;;;18.60;46.20;101855.16;5111709;28;20032;-39
2021/06/01 07:31:22;;;;;;;5.37;3.83;;;;;;;18.63;46.83;101851.88;5111271;28;19907;-39
2021/06/01 07:33:48;;;;;;;5.85;4.03;;;;;;;18.74;46.42;101850.09;5110978;28;20725;-39
2021/06/01 07:36:13;;;;;;;5.50;3.78;;;;;;;18.87;44.90;101852.38;5111411;28;20107;-39
2021/06/01 07:38:39;;;;;;;;;;;;;;;18.96;44.86;101853.53;5111449;28;20053;-39
2021/06/01 07:41:06;;;;;;;4.65;3.60;;;;;;;19.03;44.90;101850.56;5111292;28;19950;-39
2021/06/01 07:43:32;;;;;;;6.25;4.00;;;;;;;19.08;45.63;101849.78;5110879;28;20039;-39
2021/06/01 07:45:58;;;;;;;;;;;;;;;19.24;45.94;101844.16;5111500;28;20137;-39
2021/06/01 07:48:23;;;;;;;10.23;4.25;;;;;;;19.20;44.32;101842.19;5111183;28;19908;-39
2021/06/01 07:50:50;;;;;;;;;;;;;;;19.30;44.78;101843.09;5115483;28;20067;-39
2021/06/01 07:53:15;;;;;;;7.70;4.60;;;;;;;19.37;43.47;101842.00;5121666;27;20351;-39
2021/06/01 07:55:40;;;;;;;;;;;;;;;19.48;44.59;101846.47;5138205;27;20114;-39
2021/06/01 07:58:06;;;;;;;8.70;3.93;;;;;;;19.55;43.38;101836.91;5137461;27;19915;-39
2021/06/01 08:00:31;;;;;;;;;;;;;;;19.70;44.44;101825.19;5138638;27;20335;-39
2021/06/01 08:02:56;;;;;;;7.15;3.92;;;;;;;19.81;43.12;101831.56;5137620;27;19914;-39
2021/06/01 08:05:23;;;;;;;;;;;;;;;19.94;44.30;101838.47;5138072;27;20077;-39
2021/06/01 08:07:49;;;;;;;7.85;3.53;;;;;;;20.04;43.14;101824.75;5137491;27;20039;-40
2021/06/01 08:10:20;;;;;;;6.82;3.95;;;;;;;20.14;45.72;101826.72;5137438;27;20051;-39
2021/06/01 08:12:46;;;;;;;5.68;3.70;;;;;;;20.24;42.92;101826.72;5137894;27;20088;-40
2021/06/01 08:15:11;;;;;;;;;;;;;;;20.37;42.52;101822.63;5138008;27;20031;-39
2021/06/01 08:17:37;;;;;;;4.28;3.22;;;;;;;20.37;41.10;101817.97;5137223;27;19956;-39
2021/06/01 08:20:27;;;;;;;5.53;4.28;;;;;;;20.46;40.75;101816.34;5137616;27;20392;-39
2021/06/01 08:22:53;;;;;;;6.40;3.70;;;;;;;20.51;41.82;101812.78;5138099;27;20098;-39
2021/06/01 08:25:18;;;;;;;;;;;;;;;20.64;40.90;101814.97;5138310;27;20102;-39
2021/06/01 08:27:44;;;;;;;6.55;3.30;;;;;;;20.65;39.12;101811.16;5137083;27;19934;-39
2021/06/01 08:30:09;;;;;;;;;;;;;;;20.82;40.79;101811.66;5137532;27;20023;-39
2021/06/01 08:32:34;;;;;;;3.13;2.50;;;;;;;20.88;38.81;101807.00;5136965;27;19996;-40
2021/06/01 08:35:00;;;;;;;;;;;;;;;21.06;40.55;101813.84;5137437;27;20023;-40
2021/06/01 08:37:25;;;;;;;4.65;2.83;;;;;;;21.13;39.50;101814.41;5136968;27;19929;-40
2021/06/01 08:39:51;;;;;;;4.18;2.60;;;;;;;21.24;37.84;101801.44;5137229;27;20031;-40
2021/06/01 08:42:16;;;;;;;;;;;;;;;21.39;38.50;101798.66;5136978;27;20056;-40
2021/06/01 08:44:41;;;;;;;3.78;2.38;;;;;;;21.43;37.58;101793.44;5137062;27;19911;-40
2021/06/01 08:47:09;;;;;;;4.68;3.03;;;;;;;21.52;38.04;101791.72;5136695;27;20112;-40
2021/06/01 08:49:36;;;;;;;3.00;2.15;;;;;;;21.57;39.52;101791.72;5136492;27;20379;-40
2021/06/01 08:52:01;;;;;;;3.30;2.28;;;;;;;21.69;35.76;101789.44;5136664;27;20023;-40
2021/06/01 08:54:27;;;;;;;;;;;;;;;21.74;36.03;101783.09;5137626;27;20058;-40
2021/06/01 08:56:53;;;;;;;2.63;1.58;;;;;;;21.77;36.41;101783.38;5136600;27;20309;-40
2021/06/01 08:59:18;;;;;;;;;;;;;;;21.95;36.26;101786.56;5136987;27;20042;-40
2021/06/01 09:01:43;;;;;;;2.37;1.33;;;;;;;21.95;35.27;101770.84;5136845;27;20001;-40
2021/06/01 09:04:10;;;;;;;;;;;;;;;22.18;36.02;101774.88;5137642;27;20296;-40
2021/06/01 09:22:36;;;;;;;5.70;1.92;;;;;;;22.56;34.02;101775.13;5136215;27;20111;-40
2021/06/01 09:25:17;;;;;;;3.40;1.70;;;;;;;22.71;34.75;101772.22;5135011;27;20431;-40
2021/06/01 09:27:49;;;;;;;4.78;1.60;;;;;;;22.47;31.10;101765.81;5136326;27;20056;-40
2021/06/01 09:30:39;;;;;;;4.88;1.80;;;;;;;22.73;33.99;101766.41;5136271;27;20106;-40
2021/06/01 09:33:21;;;;;;;6.55;1.65;;;;;;;22.80;33.24;101764.97;5135663;27;20039;-40
2021/06/01 09:35:56;;;;;;;2.30;1.40;;;;;;;22.79;33.42;101762.47;5136539;27;20031;-40
2021/06/01 09:38:28;;;;;;;2.67;1.52;;;;;;;22.61;32.26;101756.59;5135523;27;20028;-40
2021/06/01 09:41:06;;;;;;;15.07;3.55;;;;;;;22.89;37.17;101767.94;5136562;27;20020;-40
2021/06/01 09:43:32;;;;;;;3.70;1.40;;;;;;;22.80;30.96;101762.22;5135690;27;20035;-40
2021/06/01 09:45:57;;;;;;;11.73;2.78;;;;;;;23.08;34.79;101757.81;5135748;27;20459;-40
2021/06/01 09:48:25;;;;;;;3.88;1.90;;;;;;;23.20;32.74;101751.06;5135859;27;20034;-40
2021/06/01 09:55:47;;;;;;;2.72;1.40;;;;;;;23.35;30.43;101753.63;5135617;27;20038;-40
2021/06/01 09:58:31;;;;;;;3.85;1.55;;;;;;;23.34;30.64;101752.00;5135394;27;20118;-40
2021/06/01 10:00:59;;;;;;;1.80;1.15;;;;;;;23.08;29.54;101746.78;5135102;27;20031;-40
2021/06/01 10:03:32;;;;;;;2.25;1.40;;;;;;;23.28;30.53;101742.94;5135394;27;20031;-40
2021/06/01 10:05:58;;;;;;;2.67;0.95;;;;;;;23.39;32.83;101743.63;5135582;27;20031;-40
2021/06/01 10:08:27;;;;;;;4.55;1.88;;;;;;;23.49;31.00;101735.22;5134890;27;20489;-40
2021/06/01 10:10:58;;;;;;;1.63;1.20;;;;;;;23.40;29.68;101734.25;5135299;27;20058;-40
2021/06/01 10:13:29;;;;;;;2.92;1.20;;;;;;;23.60;31.96;101722.91;5135422;27;20398;-40
2021/06/01 10:15:58;;;;;;;1.88;1.00;;;;;;;23.83;31.57;101723.19;5135452;27;20106;-40
2021/06/01 10:18:28;;;;;;;2.40;1.27;;;;;;;24.05;32.63;101723.38;5135318;27;20459;-40
2021/06/01 10:20:55;;;;;;;1.60;1.33;;;;;;;24.13;31.20;101722.69;5134297;27;20123;-40
2021/06/01 10:23:26;;;;;;;6.50;1.13;;;;;;;24.14;30.49;101723.50;5134945;27;20421;-40
2021/06/01 10:25:52;;;;;;;2.20;1.17;;;;;;;24.08;29.18;101725.53;5134728;27;20026;-40
2021/06/01 10:28:25;;;;;;;2.38;1.30;;;;;;;24.04;29.76;101726.44;5134557;27;20088;-40
2021/06/01 10:30:50;;;;;;;2.15;1.40;;;;;;;24.07;28.89;101721.16;5135676;27;20064;-40
2021/06/01 10:33:17;;;;;;;3.33;1.20;;;;;;;24.05;27.66;101719.78;5133673;27;20463;-40
2021/06/01 10:35:56;;;;;;;2.78;1.10;;;;;;;24.10;28.71;101723.28;5134417;27;20027;-40
2021/06/01 10:44:27;;;;;;;3.60;1.30;;;;;;;24.10;28.23;101712.25;5134660;27;20088;-40
2021/06/01 10:52:26;;;;;;;2.30;1.05;;;;;;;24.09;30.39;101705.06;5135191;27;20110;-40
2021/06/01 10:54:58;;;;;;;2.00;1.25;;;;;;;24.28;29.96;101699.50;5134743;27;20027;-40
2021/06/01 10:57:55;;;;;;;4.95;1.60;;;;;;;24.56;30.34;101702.38;5134986;27;20402;-41
2021/06/01 11:03:06;;;;;;;3.93;1.13;;;;;;;24.56;28.96;101700.44;5135013;28;20551;-40
2021/06/01 11:05:52;;;;;;;3.50;1.60;;;;;;;24.63;29.50;101687.00;5134217;27;20027;-40
2021/06/01 11:08:32;;;;;;;2.85;1.70;;;;;;;24.48;27.93;101680.97;5135148;28;20115;-40
2021/06/01 11:10:57;;;;;;;3.28;1.42;;;;;;;24.42;28.33;101679.41;5134527;27;20047;-41
2021/06/01 11:13:22;;;;;;;2.28;1.23;;;;;;;24.61;31.47;101680.16;5134771;27;20031;-40
2021/06/01 11:15:59;;;;;;;3.22;1.30;;;;;;;24.77;29.59;101677.91;5134345;27;20035;-40
2021/06/01 11:18:38;;;;;;;2.08;1.30;;;;;;;24.93;30.92;101659.88;5134542;27;20016;-40
2021/06/01 11:21:33;;;;;;;2.60;1.20;;;;;;;25.11;28.29;101666.47;5134838;27;20096;-40
2021/06/01 11:35:21;;;;;;;3.70;1.40;;;;;;;25.09;27.44;101647.41;5138166;27;20060;-41
2021/06/01 11:38:08;;;;;;;4.65;1.13;;;;;;;25.45;28.42;101645.78;5138124;27;20031;-40
2021/06/01 11:40:40;;;;;;;4.32;1.42;;;;;;;25.56;27.95;101653.53;5138692;27;20023;-40
2021/06/01 11:43:17;;;;;;;1.77;1.30;;;;;;;25.13;24.77;101659.50;5138360;27;20454;-41
2021/06/01 11:45:54;;;;;;;1.85;1.17;;;;;;;24.92;26.20;101656.28;5138109;27;20035;-40
2021/06/01 11:51:14;;;;;;;2.65;1.15;;;;;;;24.81;26.50;101656.81;5137944;27;20034;-40
2021/06/01 11:53:49;;;;;;;1.25;0.82;;;;;;;25.03;26.42;101653.31;5137736;27;20035;-40
2021/06/01 11:56:31;;;;;;;3.25;1.10;;;;;;;25.03;27.15;101647.78;5137824;27;20031;-40
2021/06/01 12:13:09;;;;;;;2.33;1.33;;;;;;;25.80;30.06;101627.53;5137513;27;20057;-40
2021/06/01 12:20:54;;;;;;;3.17;1.27;;;;;;;25.62;26.33;101616.31;5137360;27;20027;-40
2021/06/01 12:23:32;;;;;;;1.88;1.20;;;;;;;25.72;30.32;101625.47;5137376;27;20027;-40
2021/06/01 12:31:48;;;;;;;3.90;1.10;;;;;;;26.00;28.11;101606.78;5137112;27;20042;-40
2021/06/01 12:34:17;;;;;;;3.83;1.27;;;;;;;26.22;25.51;101601.22;5136900;27;20378;-40
2021/06/01 12:42:59;;;;;;;3.50;1.23;;;;;;;26.31;28.97;101606.81;5137536;27;20565;-40
2021/06/01 12:45:58;;;;;;;3.28;1.50;;;;;;;26.00;25.84;101595.72;5114285;28;20044;-40
2021/06/01 13:20:41;;;;;;;3.55;1.30;;;;;;;26.15;26.75;101553.72;5114009;28;20572;-41
2021/06/01 13:37:11;;;;;;;2.90;1.42;;;;;;;26.69;27.68;101543.31;5135916;27;20516;-41
2021/06/01 13:50:31;;;;;;;3.53;1.58;;;;;;;26.65;28.60;101526.53;5136145;27;20445;-39
2021/06/01 13:55:47;;;;;;;3.55;1.85;;;;;;;26.74;29.15;101529.31;5113168;28;20036;-41
2021/06/01 14:01:13;;;;;;;2.63;1.45;;;;;;;26.96;28.91;101520.03;5098181;28;20062;-40
2021/06/01 14:31:29;;;;;;;5.57;3.05;;;;;;;26.83;27.45;101498.81;5111955;28;20553;-40
2021/06/01 15:49:48;;;;;;;4.70;2.38;;;;;;;26.21;28.18;101444.38;5111790;28;20453;-40
2021/06/01 16:11:35;;;;;;;5.60;2.97;;;;;;;25.46;29.03;101439.78;5136400;27;20518;-40